Time;durP1;ratioP1;P1;durP2;ratioP2;P2;SDS_P1;SDS_P2;PMS_P1;PMS_P2;Temp;Humidity;BMP_temperature;BMP_pressure;BME280_temperature;BME280_humidity;BME280_pressure;Samples;Min_cycle;Max_cycle;Signal;HPM_P1;HPM_P2
2021/07/20 00:01:26;;;;;;;13.45;8.23;;;;;;;;;;5071035;28;20067;-69
2021/07/20 00:03:53;;;;;;;14.55;9.07;;;;;;;;;;5071366;28;20071;-68
2021/07/20 00:06:19;;;;;;;13.05;8.32;;;;;;;;;;5071146;28;20048;-68
2021/07/20 00:08:47;;;;;;;12.30;8.75;;;;;;;;;;5071278;28;20384;-68
2021/07/20 00:11:14;;;;;;;16.73;9.13;;;;;;;;;;5075130;28;20052;-68
2021/07/20 00:13:40;;;;;;;12.88;8.20;;;;;;;;;;5075645;28;20048;-68
2021/07/20 00:16:07;;;;;;;12.60;8.10;;;;;;;;;;5075542;28;20049;-68
2021/07/20 00:18:35;;;;;;;12.73;8.02;;;;;;;;;;5075009;28;20054;-69
2021/07/20 00:21:04;;;;;;;13.10;8.90;;;;;;;;;;5075307;28;20052;-69
2021/07/20 00:23:31;;;;;;;14.25;7.72;;;;;;;;;;5075498;28;20052;-69
2021/07/20 00:25:59;;;;;;;12.48;7.95;;;;;;;;;;5075200;28;20055;-69
2021/07/20 00:28:26;;;;;;;12.07;7.97;;;;;;;;;;5075144;28;20409;-69
2021/07/20 00:30:53;;;;;;;15.52;8.88;;;;;;;;;;5074828;28;20051;-69
2021/07/20 00:33:20;;;;;;;13.65;8.63;;;;;;;;;;5075243;28;20489;-69
2021/07/20 00:35:47;;;;;;;12.30;7.65;;;;;;;;;;5075138;28;20079;-69
2021/07/20 00:38:15;;;;;;;12.43;8.10;;;;;;;;;;5075119;28;20560;-69
2021/07/20 00:40:42;;;;;;;13.35;7.50;;;;;;;;;;5074985;28;20048;-69
2021/07/20 00:43:10;;;;;;;13.23;8.55;;;;;;;;;;5075099;28;20052;-69
2021/07/20 00:45:36;;;;;;;10.98;7.80;;;;;;;;;;5074987;28;20492;-69
2021/07/20 00:48:04;;;;;;;15.18;8.57;;;;;;;;;;5075017;28;20055;-69
2021/07/20 00:50:37;;;;;;;14.50;8.93;;;;;;;;;;5074643;28;20044;-69
2021/07/20 00:53:05;;;;;;;12.65;7.88;;;;;;;;;;5075293;28;20045;-69
2021/07/20 00:55:35;;;;;;;12.05;8.20;;;;;;;;;;5074653;28;20098;-69
2021/07/20 00:58:02;;;;;;;11.50;7.85;;;;;;;;;;5074828;28;20044;-69
2021/07/20 01:00:30;;;;;;;12.45;7.78;;;;;;;;;;5074225;28;20075;-69
2021/07/20 01:02:57;;;;;;;13.32;8.73;;;;;;;;;;5074328;28;20044;-69
2021/07/20 01:05:24;;;;;;;11.65;7.43;;;;;;;;;;5073576;28;20048;-69
2021/07/20 01:07:52;;;;;;;10.73;7.30;;;;;;;;;;5074006;28;20077;-69
2021/07/20 01:10:19;;;;;;;10.65;7.60;;;;;;;;;;5072769;28;20045;-69
2021/07/20 01:12:47;;;;;;;10.70;7.32;;;;;;;;;;5061199;28;20052;-69
2021/07/20 01:15:15;;;;;;;11.93;7.90;;;;;;;;;;5053298;28;20053;-69
2021/07/20 01:17:44;;;;;;;14.05;7.97;;;;;;;;;;5053463;28;20076;-71
2021/07/20 01:20:13;;;;;;;12.15;7.32;;;;;;;;;;5052898;28;20402;-69
2021/07/20 01:22:45;;;;;;;12.55;7.38;;;;;;;;;;5052524;28;20059;-69
2021/07/20 01:25:14;;;;;;;12.00;7.90;;;;;;;;;;5063108;28;20060;-69
2021/07/20 01:27:45;;;;;;;12.15;7.53;;;;;;;;;;5073230;28;20055;-69
2021/07/20 01:30:12;;;;;;;10.63;7.43;;;;;;;;;;5072679;28;20047;-69
2021/07/20 01:32:39;;;;;;;15.48;8.30;;;;;;;;;;5073122;28;20048;-69
2021/07/20 01:35:07;;;;;;;14.73;7.72;;;;;;;;;;5072958;28;20401;-69
2021/07/20 01:37:34;;;;;;;12.15;7.43;;;;;;;;;;5072972;28;20052;-69
2021/07/20 01:40:01;;;;;;;12.27;7.80;;;;;;;;;;5072677;28;20048;-69
2021/07/20 01:42:29;;;;;;;15.27;8.52;;;;;;;;;;5072808;28;20060;-69
2021/07/20 01:44:56;;;;;;;14.40;8.02;;;;;;;;;;5073174;28;20457;-69
2021/07/20 01:47:23;;;;;;;13.40;7.88;;;;;;;;;;5073010;28;20755;-69
2021/07/20 01:49:51;;;;;;;11.75;7.88;;;;;;;;;;5072542;28;20047;-72
2021/07/20 01:52:17;;;;;;;15.70;9.07;;;;;;;;;;5072887;28;20454;-69
2021/07/20 01:54:44;;;;;;;13.00;7.88;;;;;;;;;;5072361;28;20045;-69
2021/07/20 01:57:11;;;;;;;12.52;7.28;;;;;;;;;;5072298;28;20060;-69
2021/07/20 01:59:40;;;;;;;15.43;8.65;;;;;;;;;;5072818;28;20782;-70
2021/07/20 02:02:11;;;;;;;14.68;7.50;;;;;;;;;;5072857;28;20465;-69
2021/07/20 02:04:46;;;;;;;13.00;8.18;;;;;;;;;;5072323;28;20045;-70
2021/07/20 02:09:58;;;;;;;13.32;8.02;;;;;;;;;;5072191;28;20116;-69
2021/07/20 02:12:32;;;;;;;10.55;7.53;;;;;;;;;;5072343;28;20402;-69
2021/07/20 02:15:02;;;;;;;13.57;7.45;;;;;;;;;;5072361;28;20048;-70
2021/07/20 02:17:29;;;;;;;14.23;8.00;;;;;;;;;;5072582;28;20473;-70
2021/07/20 02:20:00;;;;;;;13.27;7.53;;;;;;;;;;5071760;28;20040;-69
2021/07/20 02:22:26;;;;;;;10.15;7.03;;;;;;;;;;5072370;28;20051;-68
2021/07/20 02:24:55;;;;;;;13.25;7.68;;;;;;;;;;5071944;28;20059;-70
2021/07/20 02:27:23;;;;;;;11.65;6.97;;;;;;;;;;5072061;28;20044;-70
2021/07/20 02:29:51;;;;;;;12.45;8.38;;;;;;;;;;5071460;28;20055;-70
2021/07/20 02:32:21;;;;;;;12.48;7.40;;;;;;;;;;5072040;28;20049;-69
2021/07/20 02:34:48;;;;;;;11.13;7.57;;;;;;;;;;5071762;28;20048;-69
2021/07/20 02:37:15;;;;;;;14.52;8.27;;;;;;;;;;5071951;28;20048;-70
2021/07/20 02:39:44;;;;;;;11.35;7.13;;;;;;;;;;5071548;28;20385;-70
2021/07/20 02:42:11;;;;;;;12.45;7.40;;;;;;;;;;5071813;28;20063;-70
2021/07/20 02:44:38;;;;;;;13.23;7.40;;;;;;;;;;5071624;28;20079;-70
2021/07/20 02:47:05;;;;;;;11.88;7.03;;;;;;;;;;5072012;28;20106;-70
2021/07/20 02:49:34;;;;;;;11.10;7.68;;;;;;;;;;5071568;28;20045;-70
2021/07/20 02:52:00;;;;;;;11.88;7.38;;;;;;;;;;5071305;28;20052;-70
2021/07/20 02:54:28;;;;;;;11.75;7.22;;;;;;;;;;5071155;28;20048;-71
2021/07/20 02:56:55;;;;;;;15.30;7.75;;;;;;;;;;5071637;28;20044;-69
2021/07/20 02:59:24;;;;;;;11.73;7.57;;;;;;;;;;5071260;28;20044;-70
2021/07/20 03:01:52;;;;;;;11.90;7.32;;;;;;;;;;5071235;28;20075;-71
2021/07/20 03:04:19;;;;;;;11.73;6.97;;;;;;;;;;5071277;28;20057;-71
2021/07/20 03:06:50;;;;;;;13.63;8.32;;;;;;;;;;5071585;28;20049;-71
2021/07/20 03:09:18;;;;;;;11.77;7.55;;;;;;;;;;5071111;28;20088;-70
2021/07/20 03:11:45;;;;;;;13.30;8.55;;;;;;;;;;5070758;28;20075;-71
2021/07/20 03:14:13;;;;;;;13.25;7.07;;;;;;;;;;5071786;28;20469;-71
2021/07/20 03:16:41;;;;;;;12.18;7.70;;;;;;;;;;5072234;28;20052;-71
2021/07/20 03:19:08;;;;;;;11.23;7.38;;;;;;;;;;5071714;28;20041;-71
2021/07/20 03:21:37;;;;;;;11.85;7.47;;;;;;;;;;5071898;28;20052;-71
2021/07/20 03:24:05;;;;;;;14.70;9.07;;;;;;;;;;5071637;28;20056;-71
2021/07/20 03:26:34;;;;;;;11.57;7.85;;;;;;;;;;5071423;28;20048;-71
2021/07/20 03:29:01;;;;;;;13.50;8.05;;;;;;;;;;5071617;28;20048;-71
2021/07/20 03:31:28;;;;;;;12.80;7.95;;;;;;;;;;5071902;28;20044;-71
2021/07/20 03:33:55;;;;;;;11.68;7.18;;;;;;;;;;5072051;28;20067;-71
2021/07/20 03:36:22;;;;;;;12.20;7.30;;;;;;;;;;5071873;28;20056;-71
2021/07/20 03:38:48;;;;;;;14.60;8.68;;;;;;;;;;5071741;28;20401;-71
2021/07/20 03:41:16;;;;;;;12.90;8.95;;;;;;;;;;5071585;28;20048;-71
2021/07/20 03:43:42;;;;;;;14.23;8.90;;;;;;;;;;5071235;28;20053;-70
2021/07/20 03:46:09;;;;;;;10.70;6.95;;;;;;;;;;5071464;28;20053;-71
2021/07/20 03:48:36;;;;;;;11.30;6.97;;;;;;;;;;5071676;28;20071;-71
2021/07/20 03:51:03;;;;;;;11.05;7.35;;;;;;;;;;5071543;28;20052;-71
2021/07/20 03:53:30;;;;;;;11.35;6.47;;;;;;;;;;5071440;28;20049;-71
2021/07/20 03:56:01;;;;;;;12.35;7.50;;;;;;;;;;5071283;28;20127;-71
2021/07/20 03:58:29;;;;;;;12.07;7.50;;;;;;;;;;5071647;28;20044;-71
2021/07/20 04:00:58;;;;;;;10.38;7.10;;;;;;;;;;5071638;28;20053;-71
2021/07/20 04:03:25;;;;;;;12.50;7.85;;;;;;;;;;5071412;28;20055;-71
2021/07/20 04:05:54;;;;;;;10.57;7.28;;;;;;;;;;5071794;28;20045;-71
2021/07/20 04:08:22;;;;;;;10.30;6.65;;;;;;;;;;5071197;28;20060;-71
2021/07/20 04:10:50;;;;;;;12.77;7.75;;;;;;;;;;5071050;28;20089;-71
2021/07/20 04:13:17;;;;;;;12.48;7.38;;;;;;;;;;5071627;28;20469;-71
2021/07/20 04:15:47;;;;;;;16.88;7.57;;;;;;;;;;5071315;28;20049;-71
2021/07/20 04:18:14;;;;;;;12.35;7.38;;;;;;;;;;5067416;28;20378;-71
2021/07/20 04:20:41;;;;;;;11.20;7.30;;;;;;;;;;5070894;28;20047;-71
2021/07/20 04:23:08;;;;;;;13.57;7.97;;;;;;;;;;5071202;28;20067;-71
2021/07/20 04:25:36;;;;;;;13.48;7.25;;;;;;;;;;5070685;28;20477;-71
2021/07/20 04:28:02;;;;;;;11.45;7.07;;;;;;;;;;5069235;28;20048;-71
2021/07/20 04:30:29;;;;;;;13.15;7.65;;;;;;;;;;5070972;28;20060;-70
2021/07/20 04:32:59;;;;;;;12.63;7.35;;;;;;;;;;5071084;28;20053;-70
2021/07/20 04:35:26;;;;;;;10.80;6.90;;;;;;;;;;5071073;28;20048;-71
2021/07/20 04:37:53;;;;;;;13.15;8.10;;;;;;;;;;5071316;28;20048;-71
2021/07/20 04:40:20;;;;;;;13.48;7.60;;;;;;;;;;5071005;28;20383;-71
2021/07/20 04:42:48;;;;;;;11.40;7.68;;;;;;;;;;5071079;28;20056;-71
2021/07/20 04:45:15;;;;;;;12.48;7.50;;;;;;;;;;5070492;28;20139;-71
2021/07/20 04:47:42;;;;;;;13.10;7.50;;;;;;;;;;5070233;28;20053;-71
2021/07/20 04:50:12;;;;;;;11.32;7.20;;;;;;;;;;5070853;28;20056;-71
2021/07/20 04:52:40;;;;;;;13.30;7.90;;;;;;;;;;5071033;28;20064;-70
2021/07/20 04:55:08;;;;;;;16.63;8.95;;;;;;;;;;5069860;28;20045;-70
2021/07/20 04:57:36;;;;;;;12.25;8.02;;;;;;;;;;5073820;28;20098;-70
2021/07/20 05:00:05;;;;;;;13.10;7.20;;;;;;;;;;5073999;28;20396;-71
2021/07/20 05:02:32;;;;;;;12.63;6.78;;;;;;;;;;5074522;28;20378;-71
2021/07/20 05:04:59;;;;;;;10.10;6.47;;;;;;;;;;5074525;28;20083;-71
2021/07/20 05:07:28;;;;;;;11.00;7.43;;;;;;;;;;5074406;28;20044;-70
2021/07/20 05:09:55;;;;;;;11.27;7.78;;;;;;;;;;5074691;28;20044;-71
2021/07/20 05:12:21;;;;;;;13.13;7.78;;;;;;;;;;5074408;28;20053;-70
2021/07/20 05:14:48;;;;;;;11.95;6.80;;;;;;;;;;5074557;28;20535;-70
2021/07/20 05:17:15;;;;;;;10.85;7.05;;;;;;;;;;5074038;28;20058;-71
2021/07/20 05:19:42;;;;;;;10.48;7.40;;;;;;;;;;5073835;28;20102;-71
2021/07/20 05:22:09;;;;;;;14.40;7.72;;;;;;;;;;5072913;28;20072;-70
2021/07/20 05:24:37;;;;;;;12.60;6.93;;;;;;;;;;5073014;28;20485;-70
2021/07/20 05:27:03;;;;;;;11.38;7.60;;;;;;;;;;5073288;28;20052;-71
2021/07/20 05:29:30;;;;;;;10.50;7.32;;;;;;;;;;5073672;28;20044;-71
2021/07/20 05:31:57;;;;;;;13.20;7.00;;;;;;;;;;5073523;28;20071;-71
2021/07/20 05:34:24;;;;;;;13.65;8.63;;;;;;;;;;5073690;28;20497;-70
2021/07/20 05:36:50;;;;;;;14.60;8.23;;;;;;;;;;5073752;28;20392;-71
2021/07/20 05:39:17;;;;;;;13.38;6.97;;;;;;;;;;5073304;28;20052;-71
2021/07/20 05:41:45;;;;;;;13.75;8.60;;;;;;;;;;5073306;28;20048;-71
2021/07/20 05:44:12;;;;;;;13.23;9.02;;;;;;;;;;5073312;28;20044;-71
2021/07/20 05:46:39;;;;;;;17.52;9.68;;;;;;;;;;5073365;28;20052;-71
2021/07/20 05:49:05;;;;;;;12.10;8.10;;;;;;;;;;5073191;28;20048;-71
2021/07/20 05:51:32;;;;;;;18.33;10.50;;;;;;;;;;5073330;28;20155;-71
2021/07/20 05:53:59;;;;;;;14.15;8.73;;;;;;;;;;5073037;28;20417;-71
2021/07/20 05:56:28;;;;;;;13.25;9.02;;;;;;;;;;5072867;28;20056;-69
2021/07/20 05:58:56;;;;;;;12.70;8.32;;;;;;;;;;5073189;28;20412;-70
2021/07/20 06:01:23;;;;;;;14.43;8.63;;;;;;;;;;5072915;28;20044;-68
2021/07/20 06:03:51;;;;;;;13.20;8.77;;;;;;;;;;5072910;28;20048;-68
2021/07/20 06:06:18;;;;;;;16.00;10.48;;;;;;;;;;5073266;28;20117;-71
2021/07/20 06:08:44;;;;;;;16.38;9.63;;;;;;;;;;5072597;28;20055;-71
2021/07/20 06:11:12;;;;;;;17.05;10.82;;;;;;;;;;5072360;28;20048;-69
2021/07/20 06:13:41;;;;;;;22.08;9.90;;;;;;;;;;5072288;28;20484;-71
2021/07/20 06:16:09;;;;;;;16.38;9.23;;;;;;;;;;5072232;28;20401;-69
2021/07/20 06:18:37;;;;;;;15.52;10.15;;;;;;;;;;5071806;28;20120;-71
2021/07/20 06:21:05;;;;;;;15.57;10.05;;;;;;;;;;5072323;28;20052;-71
2021/07/20 06:23:34;;;;;;;14.85;9.43;;;;;;;;;;5073106;28;20049;-69
2021/07/20 06:26:02;;;;;;;17.33;10.00;;;;;;;;;;5072450;28;20063;-69
2021/07/20 06:28:31;;;;;;;16.42;10.52;;;;;;;;;;5072530;28;20059;-70
2021/07/20 06:30:58;;;;;;;16.33;9.80;;;;;;;;;;5072276;28;20060;-69
2021/07/20 06:33:26;;;;;;;15.15;10.07;;;;;;;;;;5072911;28;20049;-69
2021/07/20 06:35:53;;;;;;;18.35;9.68;;;;;;;;;;5072651;28;20065;-69
2021/07/20 06:38:22;;;;;;;13.20;9.60;;;;;;;;;;5072418;28;20501;-69
2021/07/20 06:40:51;;;;;;;11.38;8.32;;;;;;;;;;5072244;28;20052;-69
2021/07/20 06:43:17;;;;;;;13.88;9.32;;;;;;;;;;5072500;28;20052;-69
2021/07/20 06:45:45;;;;;;;15.82;9.35;;;;;;;;;;5072385;28;20055;-69
2021/07/20 06:48:13;;;;;;;13.02;10.27;;;;;;;;;;5072120;28;20052;-69
2021/07/20 06:50:42;;;;;;;14.98;8.75;;;;;;;;;;5071763;28;20048;-69
2021/07/20 06:53:08;;;;;;;13.95;9.60;;;;;;;;;;5072245;28;20056;-69
2021/07/20 06:55:37;;;;;;;15.68;9.90;;;;;;;;;;5071957;28;20055;-69
2021/07/20 06:58:05;;;;;;;14.43;9.40;;;;;;;;;;5072256;28;20493;-71
2021/07/20 07:00:32;;;;;;;14.15;8.90;;;;;;;;;;5071858;28;20052;-71
2021/07/20 07:03:00;;;;;;;15.45;9.30;;;;;;;;;;5072095;28;20413;-70
2021/07/20 07:05:29;;;;;;;14.50;9.93;;;;;;;;;;5072134;28;20060;-71
2021/07/20 07:07:58;;;;;;;13.20;9.45;;;;;;;;;;5072242;28;20052;-71
2021/07/20 07:10:25;;;;;;;14.02;9.23;;;;;;;;;;5072074;28;20040;-69
2021/07/20 07:12:53;;;;;;;12.68;9.52;;;;;;;;;;5072332;28;20048;-69
2021/07/20 07:15:20;;;;;;;13.15;8.88;;;;;;;;;;5071988;28;20147;-71
2021/07/20 07:17:48;;;;;;;12.60;8.80;;;;;;;;;;5071765;28;20045;-71
2021/07/20 07:20:16;;;;;;;14.40;9.23;;;;;;;;;;5070881;28;20489;-71
2021/07/20 07:22:43;;;;;;;13.95;8.93;;;;;;;;;;5071831;28;20493;-70
2021/07/20 07:25:12;;;;;;;16.02;8.95;;;;;;;;;;5071746;28;20048;-70
2021/07/20 07:27:39;;;;;;;12.93;9.38;;;;;;;;;;5071169;28;20056;-70
2021/07/20 07:30:08;;;;;;;14.38;8.80;;;;;;;;;;5051826;28;20493;-70
2021/07/20 07:32:34;;;;;;;12.75;9.25;;;;;;;;;;5051887;28;20053;-70
2021/07/20 07:35:01;;;;;;;12.13;8.65;;;;;;;;;;5051640;28;20056;-70
2021/07/20 07:37:28;;;;;;;13.15;8.52;;;;;;;;;;5068086;28;20049;-70
2021/07/20 07:39:56;;;;;;;13.77;9.10;;;;;;;;;;5066749;28;20051;-70
2021/07/20 07:42:24;;;;;;;10.82;8.65;;;;;;;;;;5071784;28;20056;-70
2021/07/20 07:44:54;;;;;;;12.45;8.48;;;;;;;;;;5071523;28;20045;-70
2021/07/20 07:47:22;;;;;;;13.68;9.05;;;;;;;;;;5070592;28;20044;-70
2021/07/20 07:49:48;;;;;;;12.77;8.82;;;;;;;;;;5054924;28;20045;-71
2021/07/20 07:52:16;;;;;;;14.50;9.18;;;;;;;;;;5071669;28;20052;-70
2021/07/20 07:54:43;;;;;;;11.10;8.23;;;;;;;;;;5071466;28;20051;-70
2021/07/20 07:57:09;;;;;;;12.65;8.85;;;;;;;;;;5071291;28;20062;-70
2021/07/20 07:59:39;;;;;;;13.65;9.30;;;;;;;;;;5071321;28;20060;-70
2021/07/20 08:02:08;;;;;;;13.75;7.57;;;;;;;;;;5071686;28;20514;-70
2021/07/20 08:04:36;;;;;;;12.25;9.23;;;;;;;;;;5071395;28;20059;-70
2021/07/20 08:07:05;;;;;;;10.38;7.88;;;;;;;;;;5071407;28;20052;-70
2021/07/20 08:09:32;;;;;;;16.45;9.77;;;;;;;;;;5071570;28;20044;-70
2021/07/20 08:12:01;;;;;;;13.10;7.97;;;;;;;;;;5071276;28;20059;-70
2021/07/20 08:14:28;;;;;;;11.32;8.55;;;;;;;;;;5071538;28;20053;-70
2021/07/20 08:16:59;;;;;;;12.05;7.88;;;;;;;;;;5071580;28;20076;-70
2021/07/20 08:19:27;;;;;;;12.90;8.30;;;;;;;;;;5071303;28;20469;-70
2021/07/20 08:21:58;;;;;;;14.05;8.10;;;;;;;;;;5071168;28;20044;-70
2021/07/20 08:24:25;;;;;;;11.23;7.82;;;;;;;;;;5071478;28;20048;-70
2021/07/20 08:26:56;;;;;;;12.45;8.43;;;;;;;;;;5071540;28;20474;-70
2021/07/20 08:29:25;;;;;;;11.32;7.90;;;;;;;;;;5071229;28;20060;-70
2021/07/20 08:31:55;;;;;;;12.35;8.40;;;;;;;;;;5074536;28;20045;-70
2021/07/20 08:34:24;;;;;;;11.05;8.70;;;;;;;;;;5073982;28;20446;-70
2021/07/20 08:36:52;;;;;;;11.55;8.32;;;;;;;;;;5072793;28;20139;-70
2021/07/20 08:39:20;;;;;;;14.82;8.60;;;;;;;;;;5073224;28;20147;-70
2021/07/20 08:41:59;;;;;;;10.48;8.23;;;;;;;;;;5073376;28;20552;-70
2021/07/20 08:44:52;;;;;;;9.55;7.78;;;;;;;;;;5074363;28;20051;-71
2021/07/20 08:47:23;;;;;;;9.70;7.18;;;;;;;;;;5074665;28;20121;-70
2021/07/20 08:50:08;;;;;;;12.93;8.40;;;;;;;;;;5074101;28;20056;-70
2021/07/20 08:52:37;;;;;;;9.73;7.18;;;;;;;;;;5072348;28;20048;-70
2021/07/20 08:55:09;;;;;;;10.00;7.43;;;;;;;;;;5054639;28;20053;-70
2021/07/20 08:57:39;;;;;;;10.68;7.75;;;;;;;;;;5054648;28;20542;-70
2021/07/20 09:00:09;;;;;;;11.10;8.15;;;;;;;;;;5054493;28;20060;-70
2021/07/20 09:02:44;;;;;;;10.25;7.65;;;;;;;;;;5054617;28;20044;-70
2021/07/20 09:05:19;;;;;;;10.80;7.95;;;;;;;;;;5054269;28;20056;-71
2021/07/20 09:07:54;;;;;;;12.48;7.80;;;;;;;;;;5054269;28;20053;-70
2021/07/20 09:10:23;;;;;;;10.63;7.18;;;;;;;;;;5054104;28;20049;-70
2021/07/20 09:12:51;;;;;;;9.40;7.25;;;;;;;;;;5054262;28;20053;-70
2021/07/20 09:15:20;;;;;;;10.30;8.15;;;;;;;;;;5054499;28;20090;-70
2021/07/20 09:17:50;;;;;;;10.15;7.88;;;;;;;;;;5054564;28;20052;-70
2021/07/20 09:20:22;;;;;;;9.90;7.80;;;;;;;;;;5062626;28;20063;-70
2021/07/20 09:22:51;;;;;;;13.18;8.15;;;;;;;;;;5074424;28;20562;-70
2021/07/20 09:25:23;;;;;;;9.95;8.43;;;;;;;;;;5074215;28;20048;-70
2021/07/20 09:27:54;;;;;;;11.45;8.35;;;;;;;;;;5074022;28;20055;-70
2021/07/20 09:30:23;;;;;;;12.45;8.43;;;;;;;;;;5074172;28;20044;-70
2021/07/20 09:33:00;;;;;;;9.57;7.65;;;;;;;;;;5074167;28;20048;-70
2021/07/20 09:35:34;;;;;;;11.15;7.70;;;;;;;;;;5073963;28;20572;-70
2021/07/20 09:38:11;;;;;;;11.07;7.78;;;;;;;;;;5073849;28;20049;-70
2021/07/20 09:40:51;;;;;;;12.45;8.38;;;;;;;;;;5074018;28;20048;-70
2021/07/20 09:43:31;;;;;;;12.27;8.40;;;;;;;;;;5073270;28;20048;-70
2021/07/20 09:46:03;;;;;;;10.10;7.95;;;;;;;;;;5073488;28;20129;-69
2021/07/20 09:48:33;;;;;;;14.02;7.78;;;;;;;;;;5073777;28;20055;-70
2021/07/20 09:51:14;;;;;;;11.77;8.38;;;;;;;;;;5073333;28;20048;-70
2021/07/20 09:54:10;;;;;;;10.80;8.27;;;;;;;;;;5073803;28;20373;-70
2021/07/20 09:57:08;;;;;;;10.45;8.15;;;;;;;;;;5058428;28;20052;-69
2021/07/20 10:00:06;;;;;;;11.13;8.45;;;;;;;;;;5058891;28;20425;-70
2021/07/20 10:02:41;;;;;;;10.68;8.60;;;;;;;;;;5050147;28;20048;-70
2021/07/20 10:05:13;;;;;;;9.63;8.63;;;;;;;;;;5073572;28;20052;-69
2021/07/20 10:07:43;;;;;;;9.80;8.32;;;;;;;;;;5073291;28;20063;-71
2021/07/20 10:10:15;;;;;;;11.02;8.63;;;;;;;;;;5072898;28;20052;-70
2021/07/20 10:12:51;;;;;;;10.77;8.88;;;;;;;;;;5073333;28;20386;-70
2021/07/20 10:15:23;;;;;;;11.15;9.27;;;;;;;;;;5073339;28;20049;-70
2021/07/20 10:17:52;;;;;;;11.15;8.60;;;;;;;;;;5072686;28;20461;-69
2021/07/20 10:20:21;;;;;;;16.02;9.20;;;;;;;;;;5055984;28;20421;-70
2021/07/20 10:22:53;;;;;;;10.13;8.90;;;;;;;;;;5052869;28;20045;-70
2021/07/20 10:25:23;;;;;;;9.98;8.35;;;;;;;;;;5052682;28;20405;-69
2021/07/20 10:27:53;;;;;;;11.63;8.82;;;;;;;;;;5053108;28;20051;-70
2021/07/20 10:30:21;;;;;;;12.68;9.00;;;;;;;;;;5052590;28;20052;-69
2021/07/20 10:32:56;;;;;;;11.18;9.40;;;;;;;;;;5052697;28;20044;-70
2021/07/20 10:35:25;;;;;;;10.65;8.55;;;;;;;;;;5052963;28;20390;-69
2021/07/20 10:37:56;;;;;;;11.38;9.23;;;;;;;;;;5052500;28;20378;-69
2021/07/20 10:40:25;;;;;;;13.25;9.30;;;;;;;;;;5065783;28;20079;-69
2021/07/20 10:42:55;;;;;;;11.00;8.52;;;;;;;;;;5072453;28;20048;-69
2021/07/20 10:45:22;;;;;;;10.75;8.95;;;;;;;;;;5072191;28;20143;-69
2021/07/20 10:47:53;;;;;;;12.02;9.27;;;;;;;;;;5072558;28;20358;-69
2021/07/20 10:50:25;;;;;;;11.75;9.48;;;;;;;;;;5072506;28;20048;-70
2021/07/20 10:53:01;;;;;;;10.55;8.85;;;;;;;;;;5072472;28;20048;-70
2021/07/20 10:55:35;;;;;;;11.35;8.75;;;;;;;;;;5071508;28;20066;-69
2021/07/20 10:58:14;;;;;;;14.27;9.38;;;;;;;;;;5057822;28;20052;-69
2021/07/20 11:00:46;;;;;;;10.73;8.48;;;;;;;;;;5052126;28;20402;-69
2021/07/20 11:03:17;;;;;;;11.90;8.85;;;;;;;;;;5052092;28;20045;-69
2021/07/20 11:05:46;;;;;;;10.40;8.98;;;;;;;;;;5052091;28;20052;-69
2021/07/20 11:08:14;;;;;;;10.32;9.20;;;;;;;;;;5052304;28;20500;-69
2021/07/20 11:10:43;;;;;;;11.05;9.10;;;;;;;;;;5068552;28;20505;-69
2021/07/20 11:13:12;;;;;;;9.43;8.20;;;;;;;;;;5071987;28;20055;-69
2021/07/20 11:15:40;;;;;;;11.93;8.27;;;;;;;;;;5071987;28;20048;-69
2021/07/20 11:18:08;;;;;;;12.25;9.00;;;;;;;;;;5071548;28;20044;-69
2021/07/20 11:20:36;;;;;;;10.38;8.70;;;;;;;;;;5071772;28;20056;-69
2021/07/20 11:23:04;;;;;;;10.63;8.98;;;;;;;;;;5071961;28;20040;-69
2021/07/20 11:25:33;;;;;;;10.80;8.45;;;;;;;;;;5071905;28;20507;-69
2021/07/20 11:28:00;;;;;;;11.65;9.45;;;;;;;;;;5072060;28;20390;-69
2021/07/20 11:30:30;;;;;;;12.52;9.50;;;;;;;;;;5070591;28;20056;-69
2021/07/20 11:33:02;;;;;;;13.23;9.65;;;;;;;;;;5058053;28;20063;-69
2021/07/20 11:35:30;;;;;;;12.20;9.50;;;;;;;;;;5051952;28;20056;-69
2021/07/20 11:38:05;;;;;;;11.57;9.63;;;;;;;;;;5052001;28;20055;-69
2021/07/20 11:40:43;;;;;;;15.13;9.40;;;;;;;;;;5051689;28;20052;-70
2021/07/20 11:43:10;;;;;;;11.15;9.43;;;;;;;;;;5051637;28;20056;-69
2021/07/20 11:45:43;;;;;;;12.95;10.40;;;;;;;;;;5051786;28;20056;-69
2021/07/20 11:48:13;;;;;;;12.25;9.77;;;;;;;;;;5051808;28;20049;-69
2021/07/20 11:50:43;;;;;;;12.00;9.90;;;;;;;;;;5051584;28;20404;-69
2021/07/20 11:53:14;;;;;;;12.80;10.82;;;;;;;;;;5051893;28;20072;-69
2021/07/20 11:55:46;;;;;;;13.15;9.75;;;;;;;;;;5051612;28;20056;-68
2021/07/20 11:58:52;;;;;;;13.90;10.98;;;;;;;;;;5051826;28;20045;-69
2021/07/20 12:01:53;;;;;;;12.63;10.23;;;;;;;;;;5051442;28;20060;-69
2021/07/20 12:04:40;;;;;;;15.27;10.68;;;;;;;;;;5049010;28;20045;-69
2021/07/20 12:07:10;;;;;;;12.63;10.68;;;;;;;;;;5055251;28;20049;-69
2021/07/20 12:09:47;;;;;;;15.27;10.48;;;;;;;;;;5074771;28;20048;-69
2021/07/20 12:12:17;;;;;;;13.85;10.25;;;;;;;;;;5075624;28;20048;-69
2021/07/20 12:14:44;;;;;;;13.73;10.60;;;;;;;;;;5075620;28;20564;-69
2021/07/20 12:17:10;;;;;;;16.77;10.75;;;;;;;;;;5075543;28;20068;-69
2021/07/20 12:19:37;;;;;;;14.15;11.30;;;;;;;;;;5075329;28;20048;-69
2021/07/20 12:22:05;;;;;;;13.82;12.02;;;;;;;;;;5075383;28;20049;-69
2021/07/20 12:24:33;;;;;;;14.18;12.32;;;;;;;;;;5075378;28;20049;-69
2021/07/20 12:26:59;;;;;;;17.13;11.65;;;;;;;;;;5074024;28;20040;-69
2021/07/20 12:29:28;;;;;;;13.32;11.88;;;;;;;;;;5075008;28;20392;-69
2021/07/20 12:31:55;;;;;;;12.93;11.57;;;;;;;;;;5075245;28;20544;-68
2021/07/20 12:34:23;;;;;;;13.85;12.20;;;;;;;;;;5075091;28;20059;-69
2021/07/20 12:36:50;;;;;;;13.90;11.18;;;;;;;;;;5075167;28;20044;-69
2021/07/20 12:39:18;;;;;;;14.00;12.20;;;;;;;;;;5075128;28;20057;-69
2021/07/20 12:41:47;;;;;;;12.95;10.82;;;;;;;;;;5074953;28;20050;-69
2021/07/20 12:44:16;;;;;;;13.57;11.90;;;;;;;;;;5074742;28;20478;-69
2021/07/20 12:46:44;;;;;;;14.77;11.73;;;;;;;;;;5074695;28;20055;-68
2021/07/20 12:49:12;;;;;;;15.00;11.93;;;;;;;;;;5074272;28;20393;-69
2021/07/20 12:51:47;;;;;;;14.50;11.93;;;;;;;;;;5071269;28;20041;-69
2021/07/20 12:54:13;;;;;;;14.27;12.73;;;;;;;;;;5054854;28;20057;-69
2021/07/20 12:56:40;;;;;;;15.32;12.45;;;;;;;;;;5054545;28;20053;-68
2021/07/20 12:59:07;;;;;;;15.07;13.48;;;;;;;;;;5054516;28;20049;-69
2021/07/20 13:01:36;;;;;;;13.27;11.88;;;;;;;;;;5063449;28;20057;-69
2021/07/20 13:04:06;;;;;;;16.70;12.88;;;;;;;;;;5074646;28;20056;-69
2021/07/20 13:06:36;;;;;;;14.85;12.07;;;;;;;;;;5074457;28;20400;-69
2021/07/20 13:09:04;;;;;;;15.02;11.95;;;;;;;;;;5074178;28;20052;-67
2021/07/20 13:11:35;;;;;;;14.45;11.43;;;;;;;;;;5074535;28;20049;-68
2021/07/20 13:14:01;;;;;;;13.18;10.90;;;;;;;;;;5074418;28;20056;-69
2021/07/20 13:16:32;;;;;;;16.55;11.35;;;;;;;;;;5073624;28;20055;-69
2021/07/20 13:18:58;;;;;;;12.52;10.65;;;;;;;;;;5073924;28;20059;-69
2021/07/20 13:21:26;;;;;;;18.50;12.20;;;;;;;;;;5074482;28;20051;-69
2021/07/20 13:23:53;;;;;;;12.95;11.45;;;;;;;;;;5074366;28;20045;-69
2021/07/20 13:26:23;;;;;;;14.82;10.85;;;;;;;;;;5074208;28;20055;-69
2021/07/20 13:28:54;;;;;;;13.80;11.52;;;;;;;;;;5073920;28;20056;-69
2021/07/20 13:31:26;;;;;;;14.52;11.15;;;;;;;;;;5072907;28;20439;-70
2021/07/20 13:33:52;;;;;;;11.82;10.63;;;;;;;;;;5072589;28;20106;-67
2021/07/20 13:36:19;;;;;;;13.45;10.80;;;;;;;;;;5073921;28;20055;-67
2021/07/20 13:38:47;;;;;;;11.60;9.90;;;;;;;;;;5073708;28;20044;-69
2021/07/20 13:41:14;;;;;;;11.15;9.88;;;;;;;;;;5073113;28;20052;-69
2021/07/20 13:43:40;;;;;;;11.15;9.95;;;;;;;;;;5073494;28;20047;-68
2021/07/20 13:46:07;;;;;;;13.27;10.40;;;;;;;;;;5073427;28;20072;-68
2021/07/20 13:48:36;;;;;;;13.45;10.02;;;;;;;;;;5073188;28;20656;-67
2021/07/20 13:51:03;;;;;;;11.35;9.57;;;;;;;;;;5072804;28;20049;-68
2021/07/20 13:53:31;;;;;;;11.07;9.88;;;;;;;;;;5073941;28;20045;-67
2021/07/20 13:56:20;;;;;;;13.02;9.90;;;;;;;;;;5073117;28;20066;-67
2021/07/20 13:58:48;;;;;;;13.45;11.00;;;;;;;;;;5071584;28;20045;-67
2021/07/20 14:01:16;;;;;;;13.40;10.43;;;;;;;;;;5071808;28;20049;-67
2021/07/20 14:03:43;;;;;;;11.60;10.38;;;;;;;;;;5072791;28;20041;-67
2021/07/20 14:06:10;;;;;;;12.15;9.82;;;;;;;;;;5071190;28;20048;-67
2021/07/20 14:08:36;;;;;;;11.68;9.98;;;;;;;;;;5072993;28;20400;-67
2021/07/20 14:11:04;;;;;;;12.18;9.98;;;;;;;;;;5072709;28;20052;-68
2021/07/20 14:13:31;;;;;;;11.57;9.95;;;;;;;;;;5072777;28;20044;-68
2021/07/20 14:15:58;;;;;;;12.20;10.85;;;;;;;;;;5072740;28;20067;-67
2021/07/20 14:18:26;;;;;;;13.20;10.30;;;;;;;;;;5072666;28;20695;-67
2021/07/20 14:20:52;;;;;;;11.05;9.95;;;;;;;;;;5072703;28;20544;-67
2021/07/20 14:23:20;;;;;;;12.15;10.82;;;;;;;;;;5072483;28;20509;-67
2021/07/20 14:25:48;;;;;;;11.90;10.30;;;;;;;;;;5072590;28;20051;-67
2021/07/20 14:28:17;;;;;;;12.98;10.63;;;;;;;;;;5072092;28;20067;-68
2021/07/20 14:30:49;;;;;;;15.10;10.68;;;;;;;;;;5072662;28;20048;-69
2021/07/20 14:33:16;;;;;;;15.90;10.38;;;;;;;;;;5072413;28;20048;-69
2021/07/20 14:35:42;;;;;;;13.20;10.70;;;;;;;;;;5072434;28;20044;-70
2021/07/20 14:38:12;;;;;;;12.27;10.98;;;;;;;;;;5071806;28;20396;-68
2021/07/20 14:40:39;;;;;;;13.18;10.43;;;;;;;;;;5070303;28;20458;-68
2021/07/20 14:43:07;;;;;;;12.55;9.73;;;;;;;;;;5071931;28;20047;-68